createdAt,value
2018-11-20T00:00:19.028Z,102259.76
2018-11-20T00:03:27.503Z,102253.09
2018-11-20T00:06:28.818Z,102253.06
2018-11-20T00:09:37.312Z,102238.96
2018-11-20T00:12:38.713Z,102212.50
2018-11-20T00:15:47.185Z,102224.19
2018-11-20T00:18:53.818Z,102218.77
2018-11-20T00:22:02.305Z,102250.89
2018-11-20T00:25:02.975Z,102196.81
2018-11-20T00:28:11.502Z,102236.33
2018-11-20T00:31:03.951Z,102204.16
2018-11-20T00:34:12.442Z,102170.08
2018-11-20T00:37:16.554Z,102172.46
2018-11-20T00:40:12.766Z,102177.39
2018-11-20T00:43:13.522Z,102162.61
2018-11-20T00:46:22.056Z,102215.29
2018-11-20T00:49:25.792Z,102172.91
2018-11-20T00:52:34.884Z,102211.95
2018-11-20T00:55:55.138Z,102151.87
2018-11-20T00:59:03.632Z,102176.73
2018-11-20T01:02:04.494Z,102192.02
2018-11-20T01:05:13.020Z,102142.70
2018-11-20T01:08:14.132Z,102193.97
2018-11-20T01:11:22.584Z,102186.67
2018-11-20T01:14:24.680Z,102173.47
2018-11-20T01:17:33.169Z,102185.56
2018-11-20T01:20:34.561Z,102144.74
2018-11-20T01:23:33.336Z,102137.37
2018-11-20T01:26:21.537Z,102183.38
2018-11-20T01:32:33.298Z,102130.81
2018-11-20T01:35:41.863Z,102139.34
2018-11-20T01:38:50.335Z,102126.67
2018-11-20T01:42:18.093Z,102119.40
2018-11-20T01:45:26.979Z,102117.55
2018-11-20T01:48:33.631Z,102142.02
2018-11-20T01:51:34.541Z,102132.47
2018-11-20T01:55:02.214Z,102083.94
2018-11-20T01:58:03.329Z,102099.43
2018-11-20T02:01:11.782Z,102107.55
2018-11-20T02:04:13.449Z,102125.24
2018-11-20T02:07:21.994Z,102096.97
2018-11-20T02:10:13.356Z,102122.56
2018-11-20T02:13:59.836Z,102123.40
2018-11-20T02:17:05.157Z,102121.60
2018-11-20T02:20:14.393Z,102127.25
2018-11-20T02:23:09.648Z,102115.41
2018-11-20T02:26:18.226Z,102075.94
2018-11-20T02:29:21.503Z,102086.00
2018-11-20T02:32:30.036Z,102083.04
2018-11-20T02:35:27.550Z,102115.58
2018-11-20T02:38:36.747Z,102118.52
2018-11-20T02:41:38.236Z,102109.18
2018-11-20T02:44:46.764Z,102089.19
2018-11-20T02:47:47.616Z,102082.95
2018-11-20T02:50:42.587Z,102047.24
2018-11-20T02:53:46.724Z,102038.83
2018-11-20T02:56:48.075Z,102011.24
2018-11-20T02:59:56.591Z,102022.97
2018-11-20T03:02:57.251Z,102019.66
2018-11-20T03:06:05.813Z,102038.08
2018-11-20T03:09:09.566Z,102006.47
2018-11-20T03:12:18.042Z,102067.70
2018-11-20T03:15:26.539Z,102026.75
2018-11-20T03:18:32.981Z,102016.87
2018-11-20T03:21:41.456Z,102046.86
2018-11-20T03:24:42.088Z,102053.75
2018-11-20T03:27:50.932Z,102041.45
2018-11-20T03:34:08.363Z,102007.68
2018-11-20T03:37:15.207Z,101988.87
2018-11-20T03:40:24.014Z,102006.78
2018-11-20T03:43:25.265Z,101995.73
2018-11-20T03:46:33.794Z,101981.70
2018-11-20T03:49:41.254Z,102022.53
2018-11-20T03:52:49.735Z,101972.50
2018-11-20T03:55:40.972Z,101970.16
2018-11-20T03:58:49.495Z,102004.98
2018-11-20T04:01:58.001Z,101974.75
2018-11-20T04:04:59.131Z,101975.06
2018-11-20T04:08:07.607Z,101972.03
2018-11-20T04:11:08.836Z,101999.95
2018-11-20T04:14:17.351Z,102000.71
2018-11-20T04:17:20.946Z,101981.54
2018-11-20T04:20:18.817Z,101955.00
2018-11-20T04:23:20.309Z,101957.19
2018-11-20T04:26:28.818Z,101988.27
2018-11-20T04:29:29.527Z,101984.88
2018-11-20T04:32:38.136Z,101934.73
2018-11-20T04:35:45.403Z,101966.50
2018-11-20T04:38:53.906Z,101988.00
2018-11-20T04:41:49.621Z,101999.81
2018-11-20T04:44:58.091Z,101982.11
2018-11-20T04:47:55.301Z,102007.44
2018-11-20T04:51:03.761Z,101966.23
2018-11-20T04:54:04.489Z,101998.38
2018-11-20T04:57:13.000Z,101964.27
2018-11-20T05:00:14.627Z,101953.78
2018-11-20T05:03:23.072Z,101989.05
2018-11-20T05:06:14.140Z,101941.34
2018-11-20T05:09:22.612Z,101958.56
2018-11-20T05:12:23.737Z,101984.86
2018-11-20T05:15:32.180Z,101959.92
2018-11-20T05:18:29.480Z,101990.72
2018-11-20T05:21:37.952Z,101963.92
2018-11-20T05:24:29.783Z,101985.52
2018-11-20T05:27:37.659Z,101987.78
2018-11-20T05:30:38.391Z,101923.80
2018-11-20T05:33:46.938Z,101950.73
2018-11-20T05:36:48.098Z,101958.48
2018-11-20T05:39:56.570Z,101932.18
2018-11-20T05:42:57.613Z,101953.33
2018-11-20T05:46:06.113Z,101938.89
2018-11-20T05:49:02.813Z,101984.70
2018-11-20T05:52:11.995Z,101989.69
2018-11-20T05:55:00.902Z,101987.43
2018-11-20T05:58:09.464Z,101955.42
2018-11-20T06:01:10.697Z,101994.37
2018-11-20T06:04:19.153Z,101998.56
2018-11-20T06:07:23.126Z,101965.28
2018-11-20T06:13:38.223Z,102000.31
2018-11-20T06:16:46.780Z,102001.38
2018-11-20T06:19:47.783Z,102011.74
2018-11-20T06:25:55.727Z,102023.06
2018-11-20T06:29:04.324Z,101968.61
2018-11-20T06:31:54.046Z,102023.25
2018-11-20T06:34:50.363Z,102004.77
2018-11-20T06:37:58.894Z,102029.11
2018-11-20T06:41:03.145Z,102031.62
2018-11-20T06:44:11.698Z,102035.73
2018-11-20T06:47:20.253Z,101970.39
2018-11-20T06:50:30.030Z,101974.73
2018-11-20T06:53:30.696Z,101997.09
2018-11-20T06:56:27.056Z,102022.27
2018-11-20T06:59:27.842Z,102006.97
2018-11-20T07:02:36.350Z,102045.47
2018-11-20T07:05:27.440Z,102036.24
2018-11-20T07:08:36.046Z,102055.16
2018-11-20T07:11:45.052Z,102048.50
2018-11-20T07:14:54.473Z,102009.56
2018-11-20T07:18:03.308Z,102038.59
2018-11-20T07:21:04.608Z,102026.31
2018-11-20T07:23:54.991Z,102048.61
2018-11-20T07:26:58.720Z,102042.66
2018-11-20T07:30:07.302Z,101995.13
2018-11-20T07:33:08.782Z,102000.39
2018-11-20T07:36:17.388Z,101998.12
2018-11-20T07:39:18.383Z,101993.17
2018-11-20T07:42:10.748Z,102030.31
2018-11-20T07:45:19.276Z,101991.16
2018-11-20T07:48:20.365Z,102018.38
2018-11-20T07:51:28.913Z,102021.66
2018-11-20T07:54:30.088Z,101978.78
2018-11-20T07:57:38.623Z,101982.28
2018-11-20T08:00:39.618Z,102010.94
2018-11-20T08:03:43.725Z,101985.39
2018-11-20T08:06:52.175Z,101969.05
2018-11-20T08:09:53.372Z,101963.67
2018-11-20T08:13:02.297Z,101958.11
2018-11-20T08:16:03.890Z,101992.58
2018-11-20T08:19:12.323Z,101934.25
2018-11-20T08:22:13.115Z,101989.87
2018-11-20T08:25:21.725Z,101951.28
2018-11-20T08:28:22.315Z,101993.53
2018-11-20T08:31:31.067Z,101962.56
2018-11-20T08:34:39.728Z,101973.73
2018-11-20T08:37:48.303Z,101946.08
2018-11-20T08:40:56.835Z,101973.77
2018-11-20T08:43:57.955Z,101944.06
2018-11-20T08:46:56.991Z,101973.47
2018-11-20T08:50:05.521Z,101965.30
2018-11-20T08:53:04.033Z,101921.58
2018-11-20T08:56:04.788Z,101924.99
2018-11-20T08:59:13.314Z,101939.76
2018-11-20T09:02:21.960Z,101946.22
2018-11-20T09:05:30.355Z,101908.14
2018-11-20T09:08:38.896Z,101899.49
2018-11-20T09:11:39.531Z,101936.88
2018-11-20T09:14:48.062Z,101932.59
2018-11-20T09:17:49.195Z,101899.09
2018-11-20T09:20:57.668Z,101894.65
2018-11-20T09:23:58.911Z,101899.54
2018-11-20T09:27:07.453Z,101910.05
2018-11-20T09:30:09.047Z,101939.13
2018-11-20T09:36:18.442Z,101895.28
2018-11-20T09:39:19.172Z,101936.80
2018-11-20T09:42:27.844Z,101903.20
2018-11-20T09:45:47.935Z,101875.91
2018-11-20T09:48:56.665Z,101897.95
2018-11-20T09:51:57.218Z,101891.38
2018-11-20T09:54:58.106Z,101881.89
2018-11-20T09:58:06.595Z,101881.03
2018-11-20T10:01:07.517Z,101881.91
2018-11-20T10:04:16.555Z,101905.78
2018-11-20T10:07:18.254Z,101873.10
2018-11-20T10:10:27.647Z,101867.94
2018-11-20T10:13:20.379Z,101860.13
2018-11-20T10:16:28.926Z,101892.69
2018-11-20T10:19:29.615Z,101859.78
2018-11-20T10:22:38.124Z,101841.71
2018-11-20T10:25:38.796Z,101855.09
2018-11-20T10:28:47.956Z,101888.88
2018-11-20T10:31:48.617Z,101891.59
2018-11-20T10:34:49.634Z,101879.14
2018-11-20T10:37:58.079Z,101851.03
2018-11-20T10:40:58.729Z,101841.70
2018-11-20T10:44:07.245Z,101877.81
2018-11-20T10:47:09.159Z,101828.94
2018-11-20T10:50:11.276Z,101859.22
2018-11-20T10:53:19.749Z,101833.15
2018-11-20T10:56:21.262Z,101824.59
2018-11-20T10:59:29.764Z,101848.48
2018-11-20T11:02:30.918Z,101792.55
2018-11-20T11:05:58.342Z,101811.16
2018-11-20T11:08:59.303Z,101804.09
2018-11-20T11:12:08.074Z,101800.83
2018-11-20T11:15:09.381Z,101812.42
2018-11-20T11:18:18.746Z,101811.54
2018-11-20T11:21:11.108Z,101807.30
2018-11-20T11:24:19.458Z,101762.05
2018-11-20T11:27:26.293Z,101754.12
2018-11-20T11:30:34.782Z,101769.20
2018-11-20T11:33:28.993Z,101768.83
2018-11-20T11:36:37.401Z,101746.38
2018-11-20T11:39:29.039Z,101754.12
2018-11-20T11:42:37.616Z,101742.81
2018-11-20T11:45:38.565Z,101778.68
2018-11-20T11:48:47.076Z,101762.81
2018-11-20T11:51:48.283Z,101750.28
2018-11-20T11:54:56.940Z,101768.63
2018-11-20T12:01:01.782Z,101779.44
2018-11-20T12:03:50.727Z,101781.70
2018-11-20T12:06:59.382Z,101779.28
2018-11-20T12:10:06.789Z,101749.72
2018-11-20T12:16:15.166Z,101768.70
2018-11-20T12:19:23.677Z,101769.91
2018-11-20T12:22:27.925Z,101710.91
2018-11-20T12:25:36.424Z,101755.58
2018-11-20T12:28:37.237Z,101728.32
2018-11-20T12:31:45.703Z,101766.84
2018-11-20T12:34:54.437Z,101708.73
2018-11-20T12:38:02.733Z,101731.45
2018-11-20T12:41:11.278Z,101755.84
2018-11-20T12:44:13.581Z,101754.92
2018-11-20T12:47:22.140Z,101750.19
2018-11-20T12:50:30.629Z,101721.81
2018-11-20T12:53:40.641Z,101715.11
2018-11-20T12:56:31.888Z,101742.47
2018-11-20T12:59:40.443Z,101678.92
2018-11-20T13:02:38.225Z,101696.24
2018-11-20T13:05:43.965Z,101691.88
2018-11-20T13:08:47.927Z,101702.21
2018-11-20T13:11:56.441Z,101687.94
2018-11-20T13:14:57.846Z,101689.05
2018-11-20T13:17:56.451Z,101687.91
2018-11-20T13:20:57.629Z,101681.98
2018-11-20T13:24:09.602Z,101696.70
2018-11-20T13:27:10.123Z,101671.08
2018-11-20T13:30:18.652Z,101652.67
2018-11-20T13:33:23.086Z,101692.22
2018-11-20T13:36:28.617Z,101656.16
2018-11-20T13:39:29.013Z,101665.65
2018-11-20T13:42:31.770Z,101651.56
2018-11-20T13:45:38.815Z,101653.73
2018-11-20T13:48:47.408Z,101688.61
2018-11-20T13:51:48.138Z,101688.14
2018-11-20T13:54:56.647Z,101686.80
2018-11-20T13:57:58.525Z,101684.70
2018-11-20T14:01:07.510Z,101662.20
2018-11-20T14:04:16.029Z,101689.88
2018-11-20T14:07:17.166Z,101651.13
2018-11-20T14:10:24.768Z,101652.83
2018-11-20T14:13:33.221Z,101622.99
2018-11-20T14:16:33.974Z,101654.20
2018-11-20T14:19:42.437Z,101654.28
2018-11-20T14:22:49.567Z,101655.45
2018-11-20T14:25:58.079Z,101678.66
2018-11-20T14:29:05.314Z,101668.53
2018-11-20T14:32:04.003Z,101640.84
2018-11-20T14:35:04.806Z,101605.82
2018-11-20T14:38:13.291Z,101638.83
2018-11-20T14:41:14.672Z,101625.89
2018-11-20T14:44:23.664Z,101668.11
2018-11-20T14:55:06.675Z,101638.92
2018-11-20T14:58:07.782Z,101636.74
2018-11-20T15:01:16.278Z,101642.07
2018-11-20T15:04:17.382Z,101585.15
2018-11-20T15:07:25.883Z,101589.84
2018-11-20T15:10:21.119Z,101609.69
2018-11-20T15:13:29.630Z,101640.72
2018-11-20T15:16:38.172Z,101610.63
2018-11-20T15:19:39.716Z,101641.96
2018-11-20T15:22:32.509Z,101641.39
2018-11-20T15:25:40.964Z,101617.13
2018-11-20T15:28:40.445Z,101602.06
2018-11-20T15:31:49.178Z,101595.36
2018-11-20T15:34:45.082Z,101589.19
2018-11-20T15:37:53.573Z,101595.41
2018-11-20T15:40:54.867Z,101599.91
2018-11-20T15:47:10.022Z,101607.81
2018-11-20T15:50:11.031Z,101610.56
2018-11-20T15:53:19.554Z,101649.92
2018-11-20T15:56:20.225Z,101624.91
2018-11-20T15:59:28.725Z,101654.39
2018-11-20T16:02:37.201Z,101654.79
2018-11-20T16:05:45.760Z,101598.47
2018-11-20T16:08:47.094Z,101654.34
2018-11-20T16:11:36.853Z,101660.64
2018-11-20T16:14:38.209Z,101656.12
2018-11-20T16:17:38.837Z,101626.59
2018-11-20T16:20:48.443Z,101634.80
2018-11-20T16:23:49.368Z,101662.62
2018-11-20T16:26:57.919Z,101647.98
2018-11-20T16:30:06.514Z,101621.39
2018-11-20T16:33:15.010Z,101619.45
2018-11-20T16:36:16.322Z,101620.98
2018-11-20T16:39:28.206Z,101623.45
2018-11-20T16:42:36.734Z,101651.86
2018-11-20T16:45:45.243Z,101595.89
2018-11-20T16:48:53.754Z,101571.78
2018-11-20T16:51:55.123Z,101635.86
2018-11-20T16:55:03.673Z,101590.75
2018-11-20T16:57:54.343Z,101628.53
2018-11-20T17:01:02.891Z,101589.11
2018-11-20T17:04:04.147Z,101585.09
2018-11-20T17:07:12.665Z,101647.30
2018-11-20T17:10:13.830Z,101645.78
2018-11-20T17:13:22.326Z,101663.30
2018-11-20T17:16:23.514Z,101665.64
2018-11-20T17:19:32.330Z,101643.45
2018-11-20T17:22:34.675Z,101648.13
2018-11-20T17:25:43.184Z,101657.98
2018-11-20T17:28:44.101Z,101657.33
2018-11-20T17:31:52.634Z,101652.00
2018-11-20T17:35:01.207Z,101662.38
2018-11-20T17:38:09.674Z,101697.02
2018-11-20T17:41:18.170Z,101698.31
2018-11-20T17:44:19.639Z,101688.42
2018-11-20T17:47:28.376Z,101676.95
2018-11-20T17:50:29.927Z,101654.06
2018-11-20T17:53:38.430Z,101663.11
2018-11-20T17:56:30.708Z,101691.52
2018-11-20T17:59:39.238Z,101653.70
2018-11-20T18:02:34.028Z,101690.56
2018-11-20T18:05:42.535Z,101654.03
2018-11-20T18:08:40.148Z,101645.34
2018-11-20T18:11:48.632Z,101653.58
2018-11-20T18:14:57.136Z,101688.02
2018-11-20T18:18:03.759Z,101659.80
2018-11-20T18:21:12.280Z,101687.90
2018-11-20T18:24:13.417Z,101695.73
2018-11-20T18:27:22.173Z,101661.72
2018-11-20T18:30:27.176Z,101647.27
2018-11-20T18:33:26.614Z,101654.26
2018-11-20T18:36:27.775Z,101643.97
2018-11-20T18:39:36.287Z,101656.84
2018-11-20T18:42:37.808Z,101652.69
2018-11-20T18:45:39.173Z,101663.87
2018-11-20T18:48:53.668Z,101658.90
2018-11-20T18:51:54.244Z,101680.38
2018-11-20T18:54:52.220Z,101650.39
2018-11-20T18:58:00.664Z,101680.34
2018-11-20T19:01:02.232Z,101657.89
2018-11-20T19:04:10.799Z,101646.22
2018-11-20T19:07:19.299Z,101659.59
2018-11-20T19:10:24.237Z,101663.04
2018-11-20T19:13:25.246Z,101647.64
2018-11-20T19:16:33.802Z,101643.28
2018-11-20T19:19:35.162Z,101684.74
2018-11-20T19:22:43.699Z,101672.34
2018-11-20T19:25:44.804Z,101656.63
2018-11-20T19:28:53.308Z,101651.57
2018-11-20T19:31:54.241Z,101659.66
2018-11-20T19:35:02.766Z,101647.97
2018-11-20T19:38:03.738Z,101657.63
2018-11-20T19:41:12.220Z,101679.77
2018-11-20T19:44:13.848Z,101677.27
2018-11-20T19:47:22.390Z,101648.66
2018-11-20T19:50:22.146Z,101679.96
2018-11-20T19:53:26.320Z,101686.59
2018-11-20T19:56:35.217Z,101661.03
2018-11-20T19:59:43.714Z,101669.75
2018-11-20T20:02:52.219Z,101668.81
2018-11-20T20:05:53.099Z,101704.50
2018-11-20T20:09:00.094Z,101714.80
2018-11-20T20:12:08.548Z,101687.09
2018-11-20T20:15:10.020Z,101716.42
2018-11-20T20:18:18.484Z,101727.05
2018-11-20T20:21:20.063Z,101690.56
2018-11-20T20:24:28.549Z,101710.47
2018-11-20T20:27:30.019Z,101731.92
2018-11-20T20:30:38.492Z,101704.64
2018-11-20T20:33:39.476Z,101697.01
2018-11-20T20:39:43.315Z,101727.23
2018-11-20T20:42:43.976Z,101738.13
2018-11-20T20:48:53.680Z,101716.00
2018-11-20T20:51:35.399Z,101736.66
2018-11-20T20:54:43.902Z,101693.98
2018-11-20T20:57:52.356Z,101682.22
2018-11-20T21:00:53.015Z,101710.77
2018-11-20T21:03:55.374Z,101738.86
2018-11-20T21:07:01.883Z,101694.64
2018-11-20T21:10:10.677Z,101705.64
2018-11-20T21:13:12.013Z,101743.44
2018-11-20T21:16:20.499Z,101747.30
2018-11-20T21:19:21.438Z,101756.56
2018-11-20T21:22:30.358Z,101751.52
2018-11-20T21:25:30.894Z,101761.17
2018-11-20T21:28:39.394Z,101737.20
2018-11-20T21:31:46.200Z,101728.05
2018-11-20T21:34:55.291Z,101724.20
2018-11-20T21:38:03.271Z,101777.72
2018-11-20T21:41:04.511Z,101745.34
2018-11-20T21:44:05.836Z,101749.97
2018-11-20T21:47:14.314Z,101756.33
2018-11-20T21:50:15.097Z,101749.03
2018-11-20T21:53:23.615Z,101779.81
2018-11-20T21:56:25.246Z,101780.45
2018-11-20T21:59:18.025Z,101784.85
2018-11-20T22:02:26.962Z,101760.48
2018-11-20T22:05:35.517Z,101764.02
2018-11-20T22:08:28.928Z,101802.95
2018-11-20T22:11:37.394Z,101783.20
2018-11-20T22:14:38.599Z,101764.35
2018-11-20T22:17:47.122Z,101797.48
2018-11-20T22:20:48.626Z,101771.85
2018-11-20T22:23:57.144Z,101811.27
2018-11-20T22:26:53.089Z,101773.07
2018-11-20T22:30:01.611Z,101765.76
2018-11-20T22:33:08.609Z,101786.45
2018-11-20T22:36:17.093Z,101787.69
2018-11-20T22:39:17.795Z,101760.19
2018-11-20T22:42:26.395Z,101817.20
2018-11-20T22:45:28.830Z,101828.97
2018-11-20T22:48:37.379Z,101788.56
2018-11-20T22:51:38.262Z,101827.24
2018-11-20T22:54:46.758Z,101781.64
2018-11-20T22:57:55.595Z,101797.34
2018-11-20T23:00:59.299Z,101767.82
2018-11-20T23:04:07.853Z,101830.93
2018-11-20T23:07:11.272Z,101803.47
2018-11-20T23:10:01.548Z,101834.59
2018-11-20T23:12:44.481Z,101786.05
2018-11-20T23:15:34.468Z,101838.38
2018-11-20T23:18:17.508Z,101802.31
2018-11-20T23:21:07.707Z,101813.64
2018-11-20T23:23:57.583Z,101811.05
2018-11-20T23:26:47.988Z,101834.88
2018-11-20T23:29:30.907Z,101843.41
2018-11-20T23:32:20.802Z,101813.95
2018-11-20T23:35:02.942Z,101787.27
2018-11-20T23:37:52.824Z,101803.69
2018-11-20T23:40:24.761Z,101847.55
2018-11-20T23:43:14.687Z,101806.67
2018-11-20T23:45:57.227Z,101798.20
2018-11-20T23:48:47.088Z,101838.53
2018-11-20T23:51:30.114Z,101777.75
2018-11-20T23:54:20.004Z,101832.39
2018-11-20T23:57:02.312Z,101834.31
2018-11-20T23:59:52.192Z,101810.86
